sensor_id;sensor_type;location;lat;lon;timestamp;P1;durP1;ratioP1;P2;durP2;ratioP2
20369;SDS011;10344;47.592;9.600;2023-05-07T00:00:39;2.28;;;1.90;;
20369;SDS011;10344;47.592;9.600;2023-05-07T00:03:13;2.22;;;1.80;;
20369;SDS011;10344;47.592;9.600;2023-05-07T00:05:38;2.23;;;1.83;;
20369;SDS011;10344;47.592;9.600;2023-05-07T00:08:09;2.65;;;1.90;;
20369;SDS011;10344;47.592;9.600;2023-05-07T00:10:35;2.33;;;1.85;;
20369;SDS011;10344;47.592;9.600;2023-05-07T00:13:01;2.00;;;1.77;;
20369;SDS011;10344;47.592;9.600;2023-05-07T00:15:29;2.00;;;1.80;;
20369;SDS011;10344;47.592;9.600;2023-05-07T00:17:57;2.20;;;1.80;;
20369;SDS011;10344;47.592;9.600;2023-05-07T00:20:25;3.13;;;1.88;;
20369;SDS011;10344;47.592;9.600;2023-05-07T00:22:53;2.80;;;2.10;;
20369;SDS011;10344;47.592;9.600;2023-05-07T00:25:22;2.05;;;1.60;;
20369;SDS011;10344;47.592;9.600;2023-05-07T00:27:53;2.30;;;1.70;;
20369;SDS011;10344;47.592;9.600;2023-05-07T00:30:22;1.98;;;1.88;;
20369;SDS011;10344;47.592;9.600;2023-05-07T00:32:48;2.10;;;1.90;;
20369;SDS011;10344;47.592;9.600;2023-05-07T00:35:15;2.17;;;1.80;;
20369;SDS011;10344;47.592;9.600;2023-05-07T00:37:46;1.92;;;1.70;;
20369;SDS011;10344;47.592;9.600;2023-05-07T00:40:15;2.22;;;1.60;;
20369;SDS011;10344;47.592;9.600;2023-05-07T00:42:40;2.40;;;1.90;;
20369;SDS011;10344;47.592;9.600;2023-05-07T00:45:06;1.90;;;1.80;;
20369;SDS011;10344;47.592;9.600;2023-05-07T00:47:35;1.90;;;1.48;;
20369;SDS011;10344;47.592;9.600;2023-05-07T00:50:06;1.70;;;1.50;;
20369;SDS011;10344;47.592;9.600;2023-05-07T00:52:38;2.22;;;1.60;;
20369;SDS011;10344;47.592;9.600;2023-05-07T00:55:11;1.60;;;1.50;;
20369;SDS011;10344;47.592;9.600;2023-05-07T00:57:39;2.38;;;1.70;;
20369;SDS011;10344;47.592;9.600;2023-05-07T01:00:12;2.38;;;1.67;;
20369;SDS011;10344;47.592;9.600;2023-05-07T01:02:42;2.00;;;1.50;;
20369;SDS011;10344;47.592;9.600;2023-05-07T01:05:14;2.03;;;1.60;;
20369;SDS011;10344;47.592;9.600;2023-05-07T01:07:46;2.60;;;1.50;;
20369;SDS011;10344;47.592;9.600;2023-05-07T01:10:15;2.28;;;1.58;;
20369;SDS011;10344;47.592;9.600;2023-05-07T01:12:42;2.25;;;1.58;;
20369;SDS011;10344;47.592;9.600;2023-05-07T01:15:14;1.60;;;1.50;;
20369;SDS011;10344;47.592;9.600;2023-05-07T01:17:45;1.50;;;1.35;;
20369;SDS011;10344;47.592;9.600;2023-05-07T01:20:13;1.80;;;1.40;;
20369;SDS011;10344;47.592;9.600;2023-05-07T01:22:41;1.77;;;1.57;;
20369;SDS011;10344;47.592;9.600;2023-05-07T01:25:13;2.50;;;1.60;;
20369;SDS011;10344;47.592;9.600;2023-05-07T01:27:42;1.50;;;1.40;;
20369;SDS011;10344;47.592;9.600;2023-05-07T01:30:11;1.90;;;1.70;;
20369;SDS011;10344;47.592;9.600;2023-05-07T01:32:42;2.05;;;1.48;;
20369;SDS011;10344;47.592;9.600;2023-05-07T01:35:15;2.55;;;1.67;;
20369;SDS011;10344;47.592;9.600;2023-05-07T01:37:50;2.22;;;1.60;;
20369;SDS011;10344;47.592;9.600;2023-05-07T01:40:21;1.60;;;1.50;;
20369;SDS011;10344;47.592;9.600;2023-05-07T01:42:54;2.37;;;1.57;;
20369;SDS011;10344;47.592;9.600;2023-05-07T01:45:26;3.08;;;1.70;;
20369;SDS011;10344;47.592;9.600;2023-05-07T01:47:52;1.75;;;1.50;;
20369;SDS011;10344;47.592;9.600;2023-05-07T01:50:19;2.13;;;1.77;;
20369;SDS011;10344;47.592;9.600;2023-05-07T01:53:00;1.95;;;1.75;;
20369;SDS011;10344;47.592;9.600;2023-05-07T01:55:28;1.70;;;1.60;;
20369;SDS011;10344;47.592;9.600;2023-05-07T01:57:54;1.92;;;1.42;;
20369;SDS011;10344;47.592;9.600;2023-05-07T02:00:22;1.60;;;1.50;;
20369;SDS011;10344;47.592;9.600;2023-05-07T02:02:48;1.85;;;1.65;;
20369;SDS011;10344;47.592;9.600;2023-05-07T02:05:13;2.43;;;1.60;;
20369;SDS011;10344;47.592;9.600;2023-05-07T02:07:42;1.98;;;1.60;;
20369;SDS011;10344;47.592;9.600;2023-05-07T02:10:10;1.70;;;1.40;;
20369;SDS011;10344;47.592;9.600;2023-05-07T02:12:44;2.00;;;1.80;;
20369;SDS011;10344;47.592;9.600;2023-05-07T02:15:10;2.60;;;1.50;;
20369;SDS011;10344;47.592;9.600;2023-05-07T02:20:27;1.52;;;1.42;;
20369;SDS011;10344;47.592;9.600;2023-05-07T02:22:55;1.85;;;1.70;;
20369;SDS011;10344;47.592;9.600;2023-05-07T02:25:26;3.53;;;2.10;;
20369;SDS011;10344;47.592;9.600;2023-05-07T02:27:52;2.15;;;1.70;;
20369;SDS011;10344;47.592;9.600;2023-05-07T02:30:20;1.80;;;1.70;;
20369;SDS011;10344;47.592;9.600;2023-05-07T02:32:46;1.80;;;1.70;;
20369;SDS011;10344;47.592;9.600;2023-05-07T02:35:18;1.90;;;1.65;;
20369;SDS011;10344;47.592;9.600;2023-05-07T02:37:43;2.17;;;1.90;;
20369;SDS011;10344;47.592;9.600;2023-05-07T02:40:13;2.88;;;2.05;;
20369;SDS011;10344;47.592;9.600;2023-05-07T02:42:39;1.60;;;1.50;;
20369;SDS011;10344;47.592;9.600;2023-05-07T02:45:05;2.30;;;1.93;;
20369;SDS011;10344;47.592;9.600;2023-05-07T02:47:35;2.28;;;1.75;;
20369;SDS011;10344;47.592;9.600;2023-05-07T02:50:03;1.80;;;1.70;;
20369;SDS011;10344;47.592;9.600;2023-05-07T02:52:30;1.70;;;1.60;;
20369;SDS011;10344;47.592;9.600;2023-05-07T02:54:58;2.05;;;1.90;;
20369;SDS011;10344;47.592;9.600;2023-05-07T02:57:26;2.25;;;1.60;;
20369;SDS011;10344;47.592;9.600;2023-05-07T02:59:52;2.07;;;1.80;;
20369;SDS011;10344;47.592;9.600;2023-05-07T03:02:22;2.10;;;1.70;;
20369;SDS011;10344;47.592;9.600;2023-05-07T03:04:47;1.95;;;1.85;;
20369;SDS011;10344;47.592;9.600;2023-05-07T03:07:16;2.50;;;1.90;;
20369;SDS011;10344;47.592;9.600;2023-05-07T03:09:46;2.75;;;1.85;;
20369;SDS011;10344;47.592;9.600;2023-05-07T03:12:14;2.38;;;1.70;;
20369;SDS011;10344;47.592;9.600;2023-05-07T03:14:40;2.30;;;1.85;;
20369;SDS011;10344;47.592;9.600;2023-05-07T03:17:10;2.13;;;1.90;;
20369;SDS011;10344;47.592;9.600;2023-05-07T03:19:38;1.90;;;1.80;;
20369;SDS011;10344;47.592;9.600;2023-05-07T03:22:06;2.40;;;2.10;;
20369;SDS011;10344;47.592;9.600;2023-05-07T03:24:37;2.30;;;2.10;;
20369;SDS011;10344;47.592;9.600;2023-05-07T03:27:03;3.17;;;2.70;;
20369;SDS011;10344;47.592;9.600;2023-05-07T03:29:31;3.08;;;2.78;;
20369;SDS011;10344;47.592;9.600;2023-05-07T03:32:01;2.72;;;2.30;;
20369;SDS011;10344;47.592;9.600;2023-05-07T03:34:26;2.85;;;2.53;;
20369;SDS011;10344;47.592;9.600;2023-05-07T03:37:01;3.30;;;2.30;;
20369;SDS011;10344;47.592;9.600;2023-05-07T03:39:26;2.60;;;2.40;;
20369;SDS011;10344;47.592;9.600;2023-05-07T03:42:00;2.53;;;2.30;;
20369;SDS011;10344;47.592;9.600;2023-05-07T03:44:26;2.20;;;2.00;;
20369;SDS011;10344;47.592;9.600;2023-05-07T03:46:51;2.45;;;2.25;;
20369;SDS011;10344;47.592;9.600;2023-05-07T03:49:23;2.53;;;2.33;;
20369;SDS011;10344;47.592;9.600;2023-05-07T03:51:48;2.90;;;2.50;;
20369;SDS011;10344;47.592;9.600;2023-05-07T03:54:14;2.50;;;2.30;;
20369;SDS011;10344;47.592;9.600;2023-05-07T03:56:39;2.93;;;2.57;;
20369;SDS011;10344;47.592;9.600;2023-05-07T03:59:05;2.53;;;2.33;;
20369;SDS011;10344;47.592;9.600;2023-05-07T04:01:31;2.70;;;2.50;;
20369;SDS011;10344;47.592;9.600;2023-05-07T04:04:05;3.03;;;2.50;;
20369;SDS011;10344;47.592;9.600;2023-05-07T04:06:34;2.60;;;2.40;;
20369;SDS011;10344;47.592;9.600;2023-05-07T04:09:00;2.60;;;2.40;;
20369;SDS011;10344;47.592;9.600;2023-05-07T04:11:28;2.70;;;2.50;;
20369;SDS011;10344;47.592;9.600;2023-05-07T04:13:54;2.75;;;2.47;;
20369;SDS011;10344;47.592;9.600;2023-05-07T04:16:19;2.80;;;2.57;;
20369;SDS011;10344;47.592;9.600;2023-05-07T04:18:45;2.80;;;2.50;;
20369;SDS011;10344;47.592;9.600;2023-05-07T04:21:19;2.83;;;2.57;;
20369;SDS011;10344;47.592;9.600;2023-05-07T04:23:46;2.92;;;2.65;;
20369;SDS011;10344;47.592;9.600;2023-05-07T04:26:14;2.60;;;2.40;;
20369;SDS011;10344;47.592;9.600;2023-05-07T04:28:42;2.75;;;2.35;;
20369;SDS011;10344;47.592;9.600;2023-05-07T04:31:08;3.30;;;2.63;;
20369;SDS011;10344;47.592;9.600;2023-05-07T04:33:35;2.97;;;2.50;;
20369;SDS011;10344;47.592;9.600;2023-05-07T04:36:06;2.65;;;2.45;;
20369;SDS011;10344;47.592;9.600;2023-05-07T04:38:32;3.95;;;2.80;;
20369;SDS011;10344;47.592;9.600;2023-05-07T04:41:05;2.70;;;2.47;;
20369;SDS011;10344;47.592;9.600;2023-05-07T04:43:31;3.33;;;2.42;;
20369;SDS011;10344;47.592;9.600;2023-05-07T04:46:02;2.60;;;2.40;;
20369;SDS011;10344;47.592;9.600;2023-05-07T04:48:27;2.80;;;2.30;;
20369;SDS011;10344;47.592;9.600;2023-05-07T04:50:58;2.60;;;2.28;;
20369;SDS011;10344;47.592;9.600;2023-05-07T04:53:26;2.70;;;2.45;;
20369;SDS011;10344;47.592;9.600;2023-05-07T04:55:55;2.70;;;2.50;;
20369;SDS011;10344;47.592;9.600;2023-05-07T04:58:24;2.78;;;2.20;;
20369;SDS011;10344;47.592;9.600;2023-05-07T05:00:59;2.42;;;2.22;;
20369;SDS011;10344;47.592;9.600;2023-05-07T05:03:27;2.67;;;2.30;;
20369;SDS011;10344;47.592;9.600;2023-05-07T05:05:52;2.65;;;2.45;;
20369;SDS011;10344;47.592;9.600;2023-05-07T05:08:18;3.03;;;2.50;;
20369;SDS011;10344;47.592;9.600;2023-05-07T05:10:46;4.88;;;3.00;;
20369;SDS011;10344;47.592;9.600;2023-05-07T05:13:14;3.22;;;2.92;;
20369;SDS011;10344;47.592;9.600;2023-05-07T05:15:43;3.20;;;2.88;;
20369;SDS011;10344;47.592;9.600;2023-05-07T05:18:14;3.40;;;3.05;;
20369;SDS011;10344;47.592;9.600;2023-05-07T05:20:47;3.63;;;3.03;;
20369;SDS011;10344;47.592;9.600;2023-05-07T05:23:16;3.22;;;2.92;;
20369;SDS011;10344;47.592;9.600;2023-05-07T05:25:41;4.87;;;3.30;;
20369;SDS011;10344;47.592;9.600;2023-05-07T05:28:09;6.15;;;3.10;;
20369;SDS011;10344;47.592;9.600;2023-05-07T05:30:39;3.08;;;2.80;;
20369;SDS011;10344;47.592;9.600;2023-05-07T05:33:05;5.13;;;3.00;;
20369;SDS011;10344;47.592;9.600;2023-05-07T05:35:32;2.92;;;2.70;;
20369;SDS011;10344;47.592;9.600;2023-05-07T05:37:59;3.50;;;2.65;;
20369;SDS011;10344;47.592;9.600;2023-05-07T05:40:28;3.00;;;2.70;;
20369;SDS011;10344;47.592;9.600;2023-05-07T05:42:55;3.53;;;2.78;;
20369;SDS011;10344;47.592;9.600;2023-05-07T05:45:27;3.40;;;3.10;;
20369;SDS011;10344;47.592;9.600;2023-05-07T05:47:52;3.00;;;2.50;;
20369;SDS011;10344;47.592;9.600;2023-05-07T05:50:20;3.13;;;2.83;;
20369;SDS011;10344;47.592;9.600;2023-05-07T05:52:48;2.97;;;2.67;;
20369;SDS011;10344;47.592;9.600;2023-05-07T05:55:14;2.80;;;2.50;;
20369;SDS011;10344;47.592;9.600;2023-05-07T05:57:41;3.15;;;2.80;;
20369;SDS011;10344;47.592;9.600;2023-05-07T06:00:10;3.22;;;2.92;;
20369;SDS011;10344;47.592;9.600;2023-05-07T06:02:36;4.70;;;2.90;;
20369;SDS011;10344;47.592;9.600;2023-05-07T06:05:03;2.90;;;2.60;;
20369;SDS011;10344;47.592;9.600;2023-05-07T06:07:30;2.83;;;2.60;;
20369;SDS011;10344;47.592;9.600;2023-05-07T06:09:56;2.70;;;2.50;;
20369;SDS011;10344;47.592;9.600;2023-05-07T06:12:22;3.10;;;2.72;;
20369;SDS011;10344;47.592;9.600;2023-05-07T06:14:52;3.42;;;2.95;;
20369;SDS011;10344;47.592;9.600;2023-05-07T06:17:17;3.27;;;2.47;;
20369;SDS011;10344;47.592;9.600;2023-05-07T06:19:43;4.93;;;3.53;;
20369;SDS011;10344;47.592;9.600;2023-05-07T06:22:09;3.70;;;2.97;;
20369;SDS011;10344;47.592;9.600;2023-05-07T06:24:34;3.30;;;3.00;;
20369;SDS011;10344;47.592;9.600;2023-05-07T06:27:02;3.72;;;3.42;;
20369;SDS011;10344;47.592;9.600;2023-05-07T06:29:30;4.85;;;3.55;;
20369;SDS011;10344;47.592;9.600;2023-05-07T06:32:14;3.47;;;2.97;;
20369;SDS011;10344;47.592;9.600;2023-05-07T06:34:39;3.00;;;2.80;;
20369;SDS011;10344;47.592;9.600;2023-05-07T06:37:05;4.10;;;3.60;;
20369;SDS011;10344;47.592;9.600;2023-05-07T06:39:31;4.03;;;3.40;;
20369;SDS011;10344;47.592;9.600;2023-05-07T06:42:02;3.58;;;3.22;;
20369;SDS011;10344;47.592;9.600;2023-05-07T06:44:30;3.78;;;3.08;;
20369;SDS011;10344;47.592;9.600;2023-05-07T06:46:56;4.03;;;3.00;;
20369;SDS011;10344;47.592;9.600;2023-05-07T06:49:24;4.35;;;3.25;;
20369;SDS011;10344;47.592;9.600;2023-05-07T06:51:50;3.40;;;2.92;;
20369;SDS011;10344;47.592;9.600;2023-05-07T06:54:16;3.95;;;2.88;;
20369;SDS011;10344;47.592;9.600;2023-05-07T06:56:42;2.50;;;2.30;;
20369;SDS011;10344;47.592;9.600;2023-05-07T06:59:10;3.25;;;2.40;;
20369;SDS011;10344;47.592;9.600;2023-05-07T07:01:36;2.70;;;2.20;;
20369;SDS011;10344;47.592;9.600;2023-05-07T07:04:06;2.50;;;2.30;;
20369;SDS011;10344;47.592;9.600;2023-05-07T07:06:32;3.55;;;2.20;;
20369;SDS011;10344;47.592;9.600;2023-05-07T07:08:58;2.55;;;1.90;;
20369;SDS011;10344;47.592;9.600;2023-05-07T07:11:25;2.15;;;1.95;;
20369;SDS011;10344;47.592;9.600;2023-05-07T07:13:51;2.50;;;1.80;;
20369;SDS011;10344;47.592;9.600;2023-05-07T07:16:22;2.55;;;1.88;;
20369;SDS011;10344;47.592;9.600;2023-05-07T07:18:48;2.47;;;2.20;;
20369;SDS011;10344;47.592;9.600;2023-05-07T07:21:13;4.60;;;3.20;;
20369;SDS011;10344;47.592;9.600;2023-05-07T07:23:42;4.68;;;2.80;;
20369;SDS011;10344;47.592;9.600;2023-05-07T07:26:13;3.88;;;3.03;;
20369;SDS011;10344;47.592;9.600;2023-05-07T07:28:46;3.20;;;2.90;;
20369;SDS011;10344;47.592;9.600;2023-05-07T07:31:12;3.30;;;3.00;;
20369;SDS011;10344;47.592;9.600;2023-05-07T07:33:38;3.47;;;3.05;;
20369;SDS011;10344;47.592;9.600;2023-05-07T07:36:05;3.47;;;3.15;;
20369;SDS011;10344;47.592;9.600;2023-05-07T07:38:37;3.53;;;3.17;;
20369;SDS011;10344;47.592;9.600;2023-05-07T07:41:05;3.42;;;3.13;;
20369;SDS011;10344;47.592;9.600;2023-05-07T07:43:39;4.97;;;3.00;;
20369;SDS011;10344;47.592;9.600;2023-05-07T07:46:04;4.63;;;3.30;;
20369;SDS011;10344;47.592;9.600;2023-05-07T07:48:33;4.25;;;3.40;;
20369;SDS011;10344;47.592;9.600;2023-05-07T07:50:58;3.70;;;3.08;;
20369;SDS011;10344;47.592;9.600;2023-05-07T07:53:28;3.30;;;3.00;;
20369;SDS011;10344;47.592;9.600;2023-05-07T07:55:53;3.80;;;3.20;;
20369;SDS011;10344;47.592;9.600;2023-05-07T07:58:21;3.92;;;3.17;;
20369;SDS011;10344;47.592;9.600;2023-05-07T08:00:50;4.30;;;3.13;;
20369;SDS011;10344;47.592;9.600;2023-05-07T08:03:21;3.78;;;3.38;;
20369;SDS011;10344;47.592;9.600;2023-05-07T08:05:49;5.10;;;3.67;;
20369;SDS011;10344;47.592;9.600;2023-05-07T08:08:19;3.70;;;3.25;;
20369;SDS011;10344;47.592;9.600;2023-05-07T08:10:45;4.13;;;3.40;;
20369;SDS011;10344;47.592;9.600;2023-05-07T08:13:10;5.13;;;3.80;;
20369;SDS011;10344;47.592;9.600;2023-05-07T08:15:36;4.65;;;3.60;;
20369;SDS011;10344;47.592;9.600;2023-05-07T08:18:07;3.50;;;3.20;;
20369;SDS011;10344;47.592;9.600;2023-05-07T08:20:33;3.93;;;3.30;;
20369;SDS011;10344;47.592;9.600;2023-05-07T08:23:02;5.70;;;3.13;;
20369;SDS011;10344;47.592;9.600;2023-05-07T08:25:27;3.70;;;3.20;;
20369;SDS011;10344;47.592;9.600;2023-05-07T08:28:00;3.15;;;2.70;;
20369;SDS011;10344;47.592;9.600;2023-05-07T08:30:26;2.65;;;2.45;;
20369;SDS011;10344;47.592;9.600;2023-05-07T08:32:57;3.85;;;2.92;;
20369;SDS011;10344;47.592;9.600;2023-05-07T08:35:25;3.95;;;2.92;;
20369;SDS011;10344;47.592;9.600;2023-05-07T08:37:54;3.70;;;2.70;;
20369;SDS011;10344;47.592;9.600;2023-05-07T08:40:22;3.20;;;2.90;;
20369;SDS011;10344;47.592;9.600;2023-05-07T08:42:57;4.10;;;2.87;;
20369;SDS011;10344;47.592;9.600;2023-05-07T08:45:23;3.90;;;2.75;;
20369;SDS011;10344;47.592;9.600;2023-05-07T08:47:58;4.60;;;2.85;;
20369;SDS011;10344;47.592;9.600;2023-05-07T08:50:25;3.20;;;2.80;;
20369;SDS011;10344;47.592;9.600;2023-05-07T08:52:50;3.20;;;2.83;;
20369;SDS011;10344;47.592;9.600;2023-05-07T08:55:22;3.22;;;2.92;;
20369;SDS011;10344;47.592;9.600;2023-05-07T08:57:49;6.38;;;3.28;;
20369;SDS011;10344;47.592;9.600;2023-05-07T09:00:18;3.47;;;2.90;;
20369;SDS011;10344;47.592;9.600;2023-05-07T09:02:44;4.72;;;3.33;;
20369;SDS011;10344;47.592;9.600;2023-05-07T09:05:12;4.90;;;3.10;;
20369;SDS011;10344;47.592;9.600;2023-05-07T09:07:38;4.40;;;3.30;;
20369;SDS011;10344;47.592;9.600;2023-05-07T09:10:06;3.60;;;3.30;;
20369;SDS011;10344;47.592;9.600;2023-05-07T09:12:35;4.38;;;3.45;;
20369;SDS011;10344;47.592;9.600;2023-05-07T09:15:07;3.20;;;2.90;;
20369;SDS011;10344;47.592;9.600;2023-05-07T09:17:33;3.08;;;2.78;;
20369;SDS011;10344;47.592;9.600;2023-05-07T09:20:06;3.15;;;2.85;;
20369;SDS011;10344;47.592;9.600;2023-05-07T09:22:40;3.33;;;2.95;;
20369;SDS011;10344;47.592;9.600;2023-05-07T09:25:11;3.55;;;2.90;;
20369;SDS011;10344;47.592;9.600;2023-05-07T09:27:36;5.70;;;3.27;;
20369;SDS011;10344;47.592;9.600;2023-05-07T09:30:09;4.93;;;3.30;;
20369;SDS011;10344;47.592;9.600;2023-05-07T09:32:44;3.75;;;3.30;;
20369;SDS011;10344;47.592;9.600;2023-05-07T09:35:15;3.43;;;2.97;;
20369;SDS011;10344;47.592;9.600;2023-05-07T09:37:42;3.70;;;3.40;;
20369;SDS011;10344;47.592;9.600;2023-05-07T09:40:08;4.30;;;3.60;;
20369;SDS011;10344;47.592;9.600;2023-05-07T09:42:47;4.78;;;3.53;;
20369;SDS011;10344;47.592;9.600;2023-05-07T09:45:14;3.90;;;3.50;;
20369;SDS011;10344;47.592;9.600;2023-05-07T09:47:43;3.80;;;3.33;;
20369;SDS011;10344;47.592;9.600;2023-05-07T09:50:25;3.63;;;3.30;;
20369;SDS011;10344;47.592;9.600;2023-05-07T09:52:54;4.63;;;3.35;;
20369;SDS011;10344;47.592;9.600;2023-05-07T09:55:21;4.15;;;3.75;;
20369;SDS011;10344;47.592;9.600;2023-05-07T09:57:50;4.85;;;3.63;;
20369;SDS011;10344;47.592;9.600;2023-05-07T10:00:23;4.50;;;3.20;;
20369;SDS011;10344;47.592;9.600;2023-05-07T10:02:53;4.93;;;3.47;;
20369;SDS011;10344;47.592;9.600;2023-05-07T10:05:27;4.00;;;3.60;;
20369;SDS011;10344;47.592;9.600;2023-05-07T10:07:55;4.63;;;3.53;;
20369;SDS011;10344;47.592;9.600;2023-05-07T10:10:22;5.13;;;3.50;;
20369;SDS011;10344;47.592;9.600;2023-05-07T10:12:51;4.13;;;3.42;;
20369;SDS011;10344;47.592;9.600;2023-05-07T10:15:17;4.32;;;3.55;;
20369;SDS011;10344;47.592;9.600;2023-05-07T10:17:43;4.17;;;3.47;;
20369;SDS011;10344;47.592;9.600;2023-05-07T10:20:15;4.05;;;3.60;;
20369;SDS011;10344;47.592;9.600;2023-05-07T10:22:47;4.90;;;3.20;;
20369;SDS011;10344;47.592;9.600;2023-05-07T10:25:21;3.58;;;3.20;;
20369;SDS011;10344;47.592;9.600;2023-05-07T10:27:53;3.35;;;2.88;;
20369;SDS011;10344;47.592;9.600;2023-05-07T10:33:38;3.53;;;2.72;;
20369;SDS011;10344;47.592;9.600;2023-05-07T10:36:05;3.20;;;2.70;;
20369;SDS011;10344;47.592;9.600;2023-05-07T10:38:31;3.20;;;2.43;;
20369;SDS011;10344;47.592;9.600;2023-05-07T10:41:05;2.63;;;2.22;;
20369;SDS011;10344;47.592;9.600;2023-05-07T10:43:40;2.40;;;2.20;;
20369;SDS011;10344;47.592;9.600;2023-05-07T10:46:10;3.03;;;2.20;;
20369;SDS011;10344;47.592;9.600;2023-05-07T10:51:28;2.47;;;2.20;;
20369;SDS011;10344;47.592;9.600;2023-05-07T10:56:40;2.72;;;2.03;;
20369;SDS011;10344;47.592;9.600;2023-05-07T11:04:44;2.30;;;2.08;;
20369;SDS011;10344;47.592;9.600;2023-05-07T11:09:58;2.60;;;1.92;;
20369;SDS011;10344;47.592;9.600;2023-05-07T11:15:11;2.08;;;1.60;;
20369;SDS011;10344;47.592;9.600;2023-05-07T11:17:57;2.40;;;1.45;;
20369;SDS011;10344;47.592;9.600;2023-05-07T11:26:07;2.45;;;1.40;;
20369;SDS011;10344;47.592;9.600;2023-05-07T11:28:37;2.58;;;1.70;;
20369;SDS011;10344;47.592;9.600;2023-05-07T11:31:09;1.83;;;1.67;;
20369;SDS011;10344;47.592;9.600;2023-05-07T11:33:37;1.80;;;1.50;;
20369;SDS011;10344;47.592;9.600;2023-05-07T11:36:10;2.70;;;1.70;;
20369;SDS011;10344;47.592;9.600;2023-05-07T11:38:46;2.10;;;1.65;;
20369;SDS011;10344;47.592;9.600;2023-05-07T11:41:11;1.60;;;1.40;;
20369;SDS011;10344;47.592;9.600;2023-05-07T11:43:57;2.72;;;1.85;;
20369;SDS011;10344;47.592;9.600;2023-05-07T11:46:29;2.17;;;1.98;;
20369;SDS011;10344;47.592;9.600;2023-05-07T11:48:57;2.10;;;1.38;;
20369;SDS011;10344;47.592;9.600;2023-05-07T11:51:24;2.00;;;1.30;;
20369;SDS011;10344;47.592;9.600;2023-05-07T11:53:53;1.77;;;1.35;;
20369;SDS011;10344;47.592;9.600;2023-05-07T11:56:19;2.00;;;1.40;;
20369;SDS011;10344;47.592;9.600;2023-05-07T11:58:46;1.55;;;1.35;;
20369;SDS011;10344;47.592;9.600;2023-05-07T12:01:13;2.53;;;1.33;;
20369;SDS011;10344;47.592;9.600;2023-05-07T12:03:47;1.80;;;1.30;;
20369;SDS011;10344;47.592;9.600;2023-05-07T12:06:14;3.00;;;1.45;;
20369;SDS011;10344;47.592;9.600;2023-05-07T12:08:48;1.83;;;1.35;;
20369;SDS011;10344;47.592;9.600;2023-05-07T12:11:15;1.48;;;1.35;;
20369;SDS011;10344;47.592;9.600;2023-05-07T12:13:48;2.08;;;1.52;;
20369;SDS011;10344;47.592;9.600;2023-05-07T12:16:14;1.60;;;1.27;;
20369;SDS011;10344;47.592;9.600;2023-05-07T12:18:44;1.63;;;1.10;;
20369;SDS011;10344;47.592;9.600;2023-05-07T12:21:20;1.42;;;1.33;;
20369;SDS011;10344;47.592;9.600;2023-05-07T12:23:46;2.03;;;1.53;;
20369;SDS011;10344;47.592;9.600;2023-05-07T12:26:12;1.73;;;1.20;;
20369;SDS011;10344;47.592;9.600;2023-05-07T12:28:38;1.67;;;1.35;;
20369;SDS011;10344;47.592;9.600;2023-05-07T12:31:07;1.80;;;1.35;;
20369;SDS011;10344;47.592;9.600;2023-05-07T12:33:33;1.90;;;1.20;;
20369;SDS011;10344;47.592;9.600;2023-05-07T12:36:02;1.83;;;1.20;;
20369;SDS011;10344;47.592;9.600;2023-05-07T12:38:35;2.15;;;1.25;;
20369;SDS011;10344;47.592;9.600;2023-05-07T12:41:08;2.40;;;1.55;;
20369;SDS011;10344;47.592;9.600;2023-05-07T12:43:37;1.88;;;1.40;;
20369;SDS011;10344;47.592;9.600;2023-05-07T12:46:07;2.40;;;1.50;;
20369;SDS011;10344;47.592;9.600;2023-05-07T12:48:37;1.80;;;1.30;;
20369;SDS011;10344;47.592;9.600;2023-05-07T12:51:10;1.60;;;1.48;;
20369;SDS011;10344;47.592;9.600;2023-05-07T12:53:42;1.90;;;1.52;;
20369;SDS011;10344;47.592;9.600;2023-05-07T12:56:08;1.38;;;1.20;;
20369;SDS011;10344;47.592;9.600;2023-05-07T12:58:34;2.25;;;1.45;;
20369;SDS011;10344;47.592;9.600;2023-05-07T13:01:07;2.88;;;1.48;;
20369;SDS011;10344;47.592;9.600;2023-05-07T13:03:35;1.30;;;1.20;;
20369;SDS011;10344;47.592;9.600;2023-05-07T13:06:08;1.83;;;1.40;;
20369;SDS011;10344;47.592;9.600;2023-05-07T13:08:41;2.85;;;1.40;;
20369;SDS011;10344;47.592;9.600;2023-05-07T13:11:08;2.80;;;1.50;;
20369;SDS011;10344;47.592;9.600;2023-05-07T13:13:35;1.90;;;1.23;;
20369;SDS011;10344;47.592;9.600;2023-05-07T13:16:08;1.70;;;1.40;;
20369;SDS011;10344;47.592;9.600;2023-05-07T13:18:35;2.45;;;1.45;;
20369;SDS011;10344;47.592;9.600;2023-05-07T13:21:01;2.30;;;1.85;;
20369;SDS011;10344;47.592;9.600;2023-05-07T13:23:33;1.97;;;1.30;;
20369;SDS011;10344;47.592;9.600;2023-05-07T13:25:58;2.60;;;1.40;;
20369;SDS011;10344;47.592;9.600;2023-05-07T13:28:32;1.70;;;1.50;;
20369;SDS011;10344;47.592;9.600;2023-05-07T13:30:58;1.88;;;1.50;;
20369;SDS011;10344;47.592;9.600;2023-05-07T13:33:26;1.60;;;1.40;;
20369;SDS011;10344;47.592;9.600;2023-05-07T13:35:54;1.80;;;1.33;;
20369;SDS011;10344;47.592;9.600;2023-05-07T13:38:22;1.30;;;1.20;;
20369;SDS011;10344;47.592;9.600;2023-05-07T13:40:47;1.60;;;1.27;;
20369;SDS011;10344;47.592;9.600;2023-05-07T13:43:13;2.03;;;1.48;;
20369;SDS011;10344;47.592;9.600;2023-05-07T13:45:42;1.40;;;1.30;;
20369;SDS011;10344;47.592;9.600;2023-05-07T13:48:07;2.85;;;2.20;;
20369;SDS011;10344;47.592;9.600;2023-05-07T13:50:33;2.43;;;1.40;;
20369;SDS011;10344;47.592;9.600;2023-05-07T13:53:01;1.73;;;1.35;;
20369;SDS011;10344;47.592;9.600;2023-05-07T13:55:30;2.45;;;1.50;;
20369;SDS011;10344;47.592;9.600;2023-05-07T13:57:56;2.15;;;1.73;;
20369;SDS011;10344;47.592;9.600;2023-05-07T14:00:24;2.38;;;2.03;;
20369;SDS011;10344;47.592;9.600;2023-05-07T14:02:54;2.10;;;1.60;;
20369;SDS011;10344;47.592;9.600;2023-05-07T14:05:22;1.58;;;1.48;;
20369;SDS011;10344;47.592;9.600;2023-05-07T14:07:49;2.20;;;1.67;;
20369;SDS011;10344;47.592;9.600;2023-05-07T14:10:24;2.07;;;1.47;;
20369;SDS011;10344;47.592;9.600;2023-05-07T14:12:50;2.00;;;1.67;;
20369;SDS011;10344;47.592;9.600;2023-05-07T14:15:19;2.90;;;1.70;;
20369;SDS011;10344;47.592;9.600;2023-05-07T14:17:45;1.80;;;1.60;;
20369;SDS011;10344;47.592;9.600;2023-05-07T14:20:12;1.47;;;1.37;;
20369;SDS011;10344;47.592;9.600;2023-05-07T14:22:42;1.92;;;1.52;;
20369;SDS011;10344;47.592;9.600;2023-05-07T14:25:07;2.70;;;1.80;;
20369;SDS011;10344;47.592;9.600;2023-05-07T14:27:36;2.72;;;1.60;;
20369;SDS011;10344;47.592;9.600;2023-05-07T14:30:07;2.22;;;1.80;;
20369;SDS011;10344;47.592;9.600;2023-05-07T14:32:33;2.10;;;1.42;;
20369;SDS011;10344;47.592;9.600;2023-05-07T14:35:02;2.38;;;2.05;;
20369;SDS011;10344;47.592;9.600;2023-05-07T14:37:36;3.15;;;1.88;;
20369;SDS011;10344;47.592;9.600;2023-05-07T14:40:01;1.93;;;1.73;;
20369;SDS011;10344;47.592;9.600;2023-05-07T14:42:33;2.72;;;1.80;;
20369;SDS011;10344;47.592;9.600;2023-05-07T14:44:59;2.50;;;2.00;;
20369;SDS011;10344;47.592;9.600;2023-05-07T14:47:30;2.22;;;1.90;;
20369;SDS011;10344;47.592;9.600;2023-05-07T14:49:56;2.73;;;1.70;;
20369;SDS011;10344;47.592;9.600;2023-05-07T14:52:30;2.78;;;1.90;;
20369;SDS011;10344;47.592;9.600;2023-05-07T14:54:58;3.38;;;1.80;;
20369;SDS011;10344;47.592;9.600;2023-05-07T14:57:24;2.10;;;1.80;;
20369;SDS011;10344;47.592;9.600;2023-05-07T14:59:54;2.13;;;1.88;;
20369;SDS011;10344;47.592;9.600;2023-05-07T15:02:20;2.20;;;1.80;;
20369;SDS011;10344;47.592;9.600;2023-05-07T15:04:56;3.80;;;2.00;;
20369;SDS011;10344;47.592;9.600;2023-05-07T15:07:21;4.22;;;1.67;;
20369;SDS011;10344;47.592;9.600;2023-05-07T15:09:47;1.93;;;1.37;;
20369;SDS011;10344;47.592;9.600;2023-05-07T15:12:13;2.05;;;1.77;;
20369;SDS011;10344;47.592;9.600;2023-05-07T15:14:38;2.00;;;1.80;;
20369;SDS011;10344;47.592;9.600;2023-05-07T15:17:10;2.35;;;1.80;;
20369;SDS011;10344;47.592;9.600;2023-05-07T15:19:36;1.98;;;1.65;;
20369;SDS011;10344;47.592;9.600;2023-05-07T15:22:10;2.00;;;1.80;;
20369;SDS011;10344;47.592;9.600;2023-05-07T15:24:35;2.30;;;2.10;;